Aviation Digital Data Service (ADDS)

Output produced by METARs form (2010 UTC 19 October 2017)
found at http://www.aviationweather.gov/adds/metars/
 
KGWO 191953Z AUTO 10003KT 10SM CLR 27/10 A3018 RMK AO2 SLP218 T02670100
KGWO 191853Z AUTO 12003KT 10SM CLR 26/11 A3020 RMK AO2 SLP226 T02560106
KGWO 191753Z AUTO 35003KT 10SM CLR 24/11 A3024 RMK AO2 SLP237 T02440106 10250 20083 58014
KGWO 191653Z AUTO 02003KT 10SM CLR 23/11 A3026 RMK AO2 SLP244 T02330111
KGWO 191553Z AUTO 00000KT 10SM CLR 22/11 A3027 RMK AO2 SLP249 T02220111
KGWO 191453Z AUTO 00000KT 10SM CLR 19/12 A3028 RMK AO2 SLP251 T01940117 53014
KGWO 191353Z AUTO 07003KT 10SM CLR 15/11 A3027 RMK AO2 SLP248 T01500106
KGWO 191253Z AUTO 00000KT 10SM CLR 10/08 A3024 RMK AO2 SLP240 T01000083
KGWO 191153Z AUTO 07004KT 10SM CLR 09/07 A3023 RMK AO2 SLP238 T00890072 10133 20056 51013
KGWO 191053Z AUTO 05004KT 10SM CLR 07/06 A3023 RMK AO2 SLP235 T00720061
KGWO 190953Z AUTO 04004KT 10SM CLR 08/07 A3022 RMK AO2 SLP230 T00780067
KGWO 190853Z AUTO 00000KT 10SM CLR 06/06 A3020 RMK AO2 SLP225 T00610056 53002
KGWO 190753Z AUTO 03003KT 10SM CLR 08/07 A3019 RMK AO2 SLP223 T00780072
KGWO 190653Z AUTO 00000KT 10SM CLR 09/07 A3019 RMK AO2 SLP222 T00940072
KGWO 190553Z AUTO 18005KT 10SM CLR 14/08 A3019 RMK AO2 SLP222 T01390078 10167 20106 402560072 58006
KGWO 190453Z AUTO 14008KT 10SM CLR 16/08 A3020 RMK AO2 SLP224 T01560078
KGWO 190353Z AUTO 00000KT 10SM CLR 11/09 A3021 RMK AO2 SLP229 T01110094
KGWO 190253Z AUTO 12006KT 10SM CLR 16/09 A3021 RMK AO2 SLP228 T01560094 51007
KGWO 190153Z AUTO 11007KT 10SM CLR 17/10 A3020 RMK AO2 SLP226 T01670100
KGWO 190053Z AUTO 00000KT 10SM CLR 14/11 A3020 RMK AO2 SLP227 T01390106
KGWO 182353Z AUTO 00000KT 10SM CLR 16/11 A3019 RMK AO2 SLP222 T01610106 10256 20161 53008
KGWO 182253Z AUTO 11004KT 10SM CLR 23/08 A3017 RMK AO2 SLP216 T02330083
KGWO 182153Z AUTO 11006KT 10SM CLR 24/08 A3016 RMK AO2 SLP213 T02440078
KGWO 182053Z AUTO 00000KT 10SM CLR 25/07 A3017 RMK AO2 SLP213 T02500072 56024
KGWO 181953Z AUTO 12006KT 10SM CLR 25/08 A3018 RMK AO2 SLP219 T02500083
KGWO 181853Z AUTO 06004KT 10SM CLR 24/08 A3020 RMK AO2 SLP226 T02440078
KGWO 181753Z AUTO 18006KT 10SM CLR 23/09 A3024 RMK AO2 SLP238 T02280089 10233 20072 58012
KGWO 181653Z AUTO 14008KT 10SM CLR 22/08 A3027 RMK AO2 SLP248 T02220078
KGWO 181553Z AUTO 15011KT 10SM CLR 21/08 A3028 RMK AO2 SLP252 T02060078
KGWO 181453Z AUTO 13005KT 10SM CLR 17/10 A3027 RMK AO2 SLP251 T01720100 51011
KGWO 181353Z AUTO 10004KT 10SM CLR 13/09 A3027 RMK AO2 SLP250 T01330094
KGWO 181253Z AUTO 09003KT 10SM CLR 11/08 A3025 RMK AO2 SLP242 T01060083
KGWO 181153Z AUTO 00000KT 10SM CLR 08/07 A3024 RMK AO2 SLP240 T00830067 10111 20078 52008
KGWO 181053Z AUTO 00000KT 10SM CLR 08/07 A3024 RMK AO2 SLP239 T00830072
KGWO 180953Z AUTO 02003KT 10SM CLR 08/07 A3022 RMK AO2 SLP232 T00830072
KGWO 180853Z AUTO 00000KT 10SM CLR 08/07 A3022 RMK AO2 SLP231 T00830072 58004
KGWO 180753Z AUTO 02003KT 10SM CLR 08/07 A3023 RMK AO2 SLP234 T00830072
KGWO 180653Z AUTO 00000KT 10SM CLR 09/08 A3023 RMK AO2 SLP234 T00890078
KGWO 180553Z AUTO 05003KT 10SM CLR 11/09 A3023 RMK AO2 SLP235 T01110089 10156 20100 402440028 53001
KGWO 180453Z AUTO 00000KT 10SM CLR 11/09 A3022 RMK AO2 SLP234 T01060089
KGWO 180353Z AUTO 04004KT 10SM CLR 11/09 A3022 RMK AO2 SLP234 T01060089
KGWO 180253Z AUTO 09003KT 10SM CLR 13/09 A3023 RMK AO2 SLP235 T01280094 53012
KGWO 180153Z AUTO 03003KT 10SM CLR 12/10 A3021 RMK AO2 SLP229 T01170100
KGWO 180053Z AUTO 03003KT 10SM CLR 13/11 A3020 RMK AO2 SLP227 T01330106
KGWO 172353Z AUTO 00000KT 10SM CLR 15/11 A3019 RMK AO2 SLP223 T01500106 10244 20150 55002
KGWO 172253Z AUTO 08005KT 10SM CLR 22/09 A3019 RMK AO2 SLP221 T02170089
KGWO 172153Z AUTO 11006KT 10SM CLR 24/08 A3019 RMK AO2 SLP223 T02390083
KGWO 172053Z AUTO VRB03KT 10SM CLR 24/08 A3020 RMK AO2 SLP225 T02390083 56026
KGWO 171953Z AUTO 06006KT 10SM CLR 24/09 A3021 RMK AO2 SLP229 T02390089
KGWO 171853Z AUTO 03007KT 10SM CLR 23/10 A3023 RMK AO2 SLP237 T02330100
KGWO 171753Z AUTO 00000KT 10SM CLR 22/10 A3027 RMK AO2 SLP251 60000 T02170100 10217 20028 58016
KGWO 171653Z AUTO 08006KT 10SM CLR 21/09 A3029 RMK AO2 SLP256 T02060094
KGWO 171553Z AUTO 10009KT 10SM CLR 18/09 A3031 RMK AO2 SLP263 T01830089
KGWO 171453Z AUTO 08004KT 10SM CLR 15/08 A3032 RMK AO2 SLP267 60000 T01500083 51008
KGWO 171353Z AUTO 36005KT 10SM CLR 10/08 A3032 RMK AO2 SLP267 T01000083
KGWO 171253Z AUTO 02003KT 10SM CLR 06/05 A3030 RMK AO2 RAB14E16B27E38SNB16E27 SLP262 P0000 T00560050
KGWO 171231Z AUTO 02004KT 5SM -RA BR CLR 04/04 A3030 RMK AO2 RAB14E16B27SNB16E27 P0000 T00390039
KGWO 171218Z AUTO 01004KT 2SM -SN BR CLR 03/02 A3030 RMK AO2 VIS 1V4 RAB14E16SNB16 P0000 T00330022
KGWO 171208Z AUTO 00000KT 1/2SM FG CLR 03/02 A3030 RMK AO2 T00280022
KGWO 171153Z AUTO 00000KT 1 1/2SM BR CLR 03/03 A3030 RMK AO2 VIS 3/4V5 SLP259 60000 T00330033 10072 20033 53012
KGWO 171142Z AUTO 00000KT 3SM BR CLR 04/04 A3029 RMK AO2 T00390039
KGWO 171130Z AUTO 00000KT 1 1/2SM BR CLR 03/03 A3029 RMK AO2 T00330033
KGWO 171053Z AUTO 00000KT 9SM CLR 04/04 A3028 RMK AO2 SLP254 T00440039
KGWO 170953Z AUTO 02003KT 10SM CLR 06/05 A3027 RMK AO2 SLP250 T00560050
KGWO 170853Z AUTO 01003KT 10SM CLR 06/05 A3026 RMK AO2 RAE11 SLP247 P0000 60000 T00610050 58004
KGWO 170753Z AUTO 01003KT 10SM -RA CLR 06/05 A3027 RMK AO2 RAB48 SLP250 P0000 T00560050
KGWO 170653Z AUTO 01003KT 10SM CLR 07/06 A3027 RMK AO2 SLP251 T00670061
KGWO 170553Z AUTO 36003KT 10SM CLR 07/06 A3027 RMK AO2 SLP251 T00670061 10139 20061 402170061 58003
KGWO 170453Z AUTO 00000KT 10SM CLR 07/06 A3028 RMK AO2 SLP253 T00720061
KGWO 170353Z AUTO 02003KT 10SM CLR 08/07 A3029 RMK AO2 SLP255 T00830067
KGWO 170253Z AUTO 00000KT 10SM CLR 08/06 A3028 RMK AO2 SLP254 T00830061 51016
KGWO 170153Z AUTO 00000KT 10SM CLR 09/07 A3027 RMK AO2 SLP250 T00890072
KGWO 170053Z AUTO 36003KT 10SM CLR 12/07 A3025 RMK AO2 SLP243 T01170072
KGWO 162353Z AUTO 36004KT 10SM CLR 14/07 A3023 RMK AO2 SLP238 T01390067 10217 20139 53004
KGWO 162253Z AUTO 02006KT 10SM CLR 18/06 A3022 RMK AO2 SLP234 T01830061
KGWO 162153Z AUTO 03012G16KT 10SM CLR 21/06 A3022 RMK AO2 SLP232 T02060056
KGWO 162053Z AUTO 02013G19KT 10SM CLR 21/06 A3022 RMK AO2 SLP233 T02110061 56023